Time;durP1;ratioP1;P1;durP2;ratioP2;P2;SDS_P1;SDS_P2;PMS_P1;PMS_P2;Temp;Humidity;BMP_temperature;BMP_pressure;BME280_temperature;BME280_humidity;BME280_pressure;Samples;Min_cycle;Max_cycle;Signal;HPM_P1;HPM_P2
2021/12/09 00:00:52;;;;;;;26.60;14.30;;;;;;;-3.09;81.79;97730.08;213661;1323;25597;-71
2021/12/09 00:05:57;;;;;;;29.60;14.50;;;;;;;-3.10;81.97;97726.34;214155;1323;22658;-71
2021/12/09 00:11:02;;;;;;;31.10;15.40;;;;;;;-3.12;81.80;97717.10;213891;1322;25643;-71
2021/12/09 00:16:13;;;;;;;25.20;13.40;;;;;;;-3.16;81.94;97714.49;211111;1322;4052857;-70
2021/12/09 00:21:28;;;;;;;27.30;12.50;;;;;;;-3.08;82.06;97714.33;214270;1321;23310;-70
2021/12/09 00:26:31;;;;;;;25.70;12.40;;;;;;;-3.05;82.11;97710.15;214317;1316;24103;-71
2021/12/09 00:31:44;;;;;;;24.50;13.00;;;;;;;-3.05;81.84;97698.20;214402;1320;22653;-71
2021/12/09 00:37:02;;;;;;;26.20;13.40;;;;;;;-3.00;81.96;97708.52;214680;1319;22650;-71
2021/12/09 00:42:07;;;;;;;22.20;12.20;;;;;;;-2.97;81.96;97709.13;214306;1321;22741;-70
2021/12/09 00:47:29;;;;;;;;;;;;;;;;;;;;;
2021/12/09 00:52:32;;;;;;;25.60;12.80;;;;;;;-2.98;81.90;97686.11;214154;1315;22629;-72
2021/12/09 00:57:46;;;;;;;23.00;11.60;;;;;;;-2.94;82.00;97682.00;214174;1322;22796;-71
2021/12/09 01:03:08;;;;;;;21.70;12.40;;;;;;;-2.89;81.92;97676.08;214308;1319;22750;-71
2021/12/09 01:08:22;;;;;;;25.00;13.10;;;;;;;-2.88;81.71;97670.64;213275;1321;25451;-72
2021/12/09 01:13:50;;;;;;;24.70;12.40;;;;;;;-2.90;81.73;97661.38;214143;1322;22599;-71
2021/12/09 01:18:53;;;;;;;27.90;13.30;;;;;;;-2.94;81.59;97658.30;213142;1321;24375;-71
2021/12/09 01:23:59;;;;;;;29.00;12.90;;;;;;;-2.97;81.64;97656.83;214202;1321;24229;-71
2021/12/09 01:29:28;;;;;;;24.90;12.70;;;;;;;-2.90;82.02;97656.15;213988;1321;24185;-71
2021/12/09 01:34:36;;;;;;;26.00;12.70;;;;;;;-2.85;81.77;97660.86;214147;1321;22737;-70
2021/12/09 01:39:39;;;;;;;26.80;13.10;;;;;;;-2.81;81.96;97659.73;214409;1320;23022;-71
2021/12/09 01:44:41;;;;;;;27.40;13.20;;;;;;;-2.77;81.88;97659.30;214362;1320;22602;-71
2021/12/09 01:49:46;;;;;;;25.90;13.20;;;;;;;-2.71;81.81;97656.06;214184;1320;24244;-71
2021/12/09 01:54:52;;;;;;;22.80;12.50;;;;;;;-2.70;81.73;97661.48;213896;1315;24190;-71
2021/12/09 01:59:57;;;;;;;28.00;14.30;;;;;;;-2.66;81.75;97662.06;213894;1323;24317;-71
2021/12/09 02:04:59;;;;;;;23.70;12.50;;;;;;;-2.64;81.49;97663.04;214014;1322;22574;-71
2021/12/09 02:10:05;;;;;;;29.40;14.50;;;;;;;-2.66;81.55;97655.23;213978;1323;24830;-71
2021/12/09 02:15:08;;;;;;;24.40;12.00;;;;;;;-2.66;81.67;97662.59;214159;1323;22990;-71
2021/12/09 02:20:11;;;;;;;28.20;14.00;;;;;;;-2.59;81.76;97657.44;213949;1320;24311;-71
2021/12/09 02:25:30;;;;;;;28.80;13.10;;;;;;;-2.55;81.62;97662.18;213750;1318;24292;-71
2021/12/09 02:30:53;;;;;;;25.50;13.60;;;;;;;-2.50;81.62;97678.23;213983;1321;22586;-72
2021/12/09 02:35:55;;;;;;;23.60;11.90;;;;;;;-2.46;81.39;97676.54;214011;1323;22618;-71
2021/12/09 02:40:58;;;;;;;25.60;13.30;;;;;;;-2.43;81.43;97672.34;213929;1323;23308;-70
2021/12/09 02:46:02;;;;;;;24.30;13.00;;;;;;;-2.43;81.41;97656.86;213894;1323;22994;-71
2021/12/09 02:51:06;;;;;;;26.40;13.90;;;;;;;-2.39;81.48;97651.58;214266;1323;24718;-71
2021/12/09 02:56:20;;;;;;;25.10;12.70;;;;;;;-2.40;81.28;97656.23;214028;1320;22628;-71
2021/12/09 03:01:27;;;;;;;23.90;12.20;;;;;;;-2.40;81.27;97662.80;213900;1319;24441;-71
2021/12/09 03:06:46;;;;;;;23.60;12.40;;;;;;;-2.33;81.33;97680.69;213903;1324;24350;-71
2021/12/09 03:12:13;;;;;;;25.90;12.90;;;;;;;-2.27;81.22;97683.63;213907;1322;22577;-71
2021/12/09 03:17:19;;;;;;;26.80;13.30;;;;;;;-2.27;81.10;97678.55;213745;1324;22672;-72
2021/12/09 03:27:50;;;;;;;23.40;13.10;;;;;;;-2.25;81.10;97666.89;213495;1323;26500;-70
2021/12/09 03:33:03;;;;;;;26.40;13.30;;;;;;;-2.22;81.02;97660.16;213893;1323;22598;-71
2021/12/09 03:38:11;;;;;;;23.80;13.30;;;;;;;-2.26;80.69;97664.19;213714;1323;23075;-71
2021/12/09 03:43:13;;;;;;;26.50;14.30;;;;;;;-2.27;80.93;97671.32;213502;1324;25547;-70
2021/12/09 03:48:17;;;;;;;28.10;14.60;;;;;;;-2.23;80.81;97667.86;213679;1321;26940;-71
2021/12/09 03:53:19;;;;;;;25.80;13.90;;;;;;;-2.18;81.05;97659.58;213905;1323;25292;-72
2021/12/09 03:58:22;;;;;;;26.20;14.10;;;;;;;-2.15;80.86;97671.13;213813;1322;25352;-71
2021/12/09 04:09:19;;;;;;;25.60;14.00;;;;;;;-2.14;80.56;97666.24;214231;1323;23185;-70
2021/12/09 04:14:43;;;;;;;23.20;12.70;;;;;;;-2.12;80.88;97660.13;214064;1323;22742;-71
2021/12/09 04:19:47;;;;;;;24.60;13.60;;;;;;;-2.07;80.51;97664.39;213849;1323;22659;-71
2021/12/09 04:25:16;;;;;;;29.60;15.70;;;;;;;-2.07;80.65;97649.96;213907;1322;22669;-70
2021/12/09 04:30:31;;;;;;;30.10;16.00;;;;;;;-2.14;80.49;97662.15;213848;1319;22573;-71
2021/12/09 04:36:02;;;;;;;30.80;15.40;;;;;;;-2.16;80.71;97663.86;213973;1323;22600;-71
2021/12/09 04:41:17;;;;;;;29.90;15.80;;;;;;;-2.16;80.68;97661.11;213907;1320;22597;-71
2021/12/09 04:46:29;;;;;;;25.30;13.50;;;;;;;-2.18;80.76;97661.98;213887;1323;22684;-71
2021/12/09 04:51:41;;;;;;;27.50;14.90;;;;;;;-2.13;80.76;97660.61;213744;1323;22630;-72
2021/12/09 04:56:44;;;;;;;25.30;14.10;;;;;;;-2.13;80.79;97649.69;213613;1318;22679;-71
2021/12/09 05:02:21;;;;;;;29.10;14.90;;;;;;;-2.10;80.96;97666.38;214003;1322;23404;-70
2021/12/09 05:07:42;;;;;;;26.00;14.60;;;;;;;-1.98;81.12;97663.88;213084;1323;22584;-70
2021/12/09 05:12:46;;;;;;;25.80;13.60;;;;;;;-1.91;80.73;97653.46;213709;1324;25277;-71
2021/12/09 05:17:48;;;;;;;30.90;15.40;;;;;;;-1.94;80.72;97663.23;214080;1323;23363;-71
2021/12/09 05:22:59;;;;;;;30.10;14.40;;;;;;;-1.89;80.78;97670.77;214193;1323;25333;-70
2021/12/09 05:28:21;;;;;;;28.40;15.00;;;;;;;-1.83;80.68;97660.98;214159;1315;23828;-71
2021/12/09 05:33:37;;;;;;;27.00;14.00;;;;;;;-1.78;80.93;97648.16;214015;1322;23387;-71
2021/12/09 05:38:59;;;;;;;29.60;14.90;;;;;;;-1.75;80.48;97655.20;213848;1322;22753;-71
2021/12/09 05:44:16;;;;;;;26.00;13.70;;;;;;;-1.72;80.58;97672.50;213837;1323;22772;-72
2021/12/09 05:49:32;;;;;;;26.10;14.90;;;;;;;-1.70;80.52;97680.83;214104;1323;22574;-71
2021/12/09 05:54:38;;;;;;;27.40;14.80;;;;;;;-1.72;80.45;97692.98;214065;1318;25402;-71
2021/12/09 05:59:45;;;;;;;27.90;15.40;;;;;;;-1.67;80.51;97697.94;214145;1319;22572;-71
2021/12/09 06:04:47;;;;;;;28.20;14.50;;;;;;;-1.61;80.50;97683.18;214379;1322;22562;-71
2021/12/09 06:09:54;;;;;;;27.50;14.40;;;;;;;-1.60;80.52;97684.92;214008;1321;22560;-71
2021/12/09 06:15:15;;;;;;;28.30;14.30;;;;;;;-1.58;80.43;97712.48;214141;1321;23044;-71
2021/12/09 06:20:17;;;;;;;27.10;14.60;;;;;;;-1.59;80.43;97719.67;213851;1319;22650;-71
2021/12/09 06:25:20;;;;;;;28.80;15.50;;;;;;;-1.52;80.69;97709.48;214005;1322;23911;-71
2021/12/09 06:30:25;;;;;;;29.30;15.20;;;;;;;-1.44;80.45;97707.27;213993;1319;22648;-71
2021/12/09 06:35:42;;;;;;;29.70;15.60;;;;;;;-1.42;80.28;97709.35;214252;1324;22726;-70
2021/12/09 06:40:45;;;;;;;27.70;15.30;;;;;;;-1.40;80.20;97723.58;214383;1323;22587;-72
2021/12/09 06:46:05;;;;;;;33.70;16.90;;;;;;;-1.45;79.82;97744.05;214047;1316;22580;-72
2021/12/09 06:51:15;;;;;;;36.00;19.30;;;;;;;-1.44;80.15;97744.73;213896;1316;24253;-72
2021/12/09 06:56:19;;;;;;;40.10;17.60;;;;;;;-1.36;80.38;97739.00;214061;1318;22873;-72
2021/12/09 07:01:36;;;;;;;32.40;17.50;;;;;;;-1.29;80.16;97725.23;214597;1316;22810;-69
2021/12/09 07:06:50;;;;;;;36.60;17.60;;;;;;;-1.30;79.87;97727.00;212790;1317;23654;-70
2021/12/09 07:12:19;;;;;;;30.10;16.20;;;;;;;-1.34;79.85;97745.86;212679;1316;24326;-72
2021/12/09 07:17:42;;;;;;;29.80;14.90;;;;;;;-1.26;80.17;97740.07;214141;1316;22589;-71
2021/12/09 07:22:47;;;;;;;30.10;16.00;;;;;;;-1.22;80.11;97728.83;214265;1316;22689;-70
2021/12/09 07:28:05;;;;;;;29.70;15.70;;;;;;;-1.20;79.86;97734.01;214384;1316;22629;-71
2021/12/09 07:33:14;;;;;;;36.50;16.80;;;;;;;-1.16;79.83;97733.39;214009;1316;23156;-71
2021/12/09 07:38:29;;;;;;;33.50;17.00;;;;;;;-1.15;79.76;97739.71;214049;1316;22622;-72
2021/12/09 07:43:32;;;;;;;34.60;17.20;;;;;;;-1.10;79.89;97737.53;214028;1316;25252;-72
2021/12/09 07:48:34;;;;;;;32.10;16.50;;;;;;;-1.10;79.74;97743.73;214285;1317;22563;-71
2021/12/09 07:53:38;;;;;;;33.30;17.00;;;;;;;-1.07;79.49;97755.73;214188;1321;22786;-71
2021/12/09 07:58:46;;;;;;;35.80;17.40;;;;;;;-0.95;79.95;97763.28;214251;1316;22627;-72
2021/12/09 08:04:03;;;;;;;33.10;17.90;;;;;;;-0.88;79.72;97767.92;214133;1315;22733;-72
2021/12/09 08:09:28;;;;;;;30.70;16.00;;;;;;;-0.84;79.76;97770.76;213767;1316;23389;-72
2021/12/09 08:14:40;;;;;;;35.50;18.30;;;;;;;-0.85;79.50;97761.75;214106;1316;219709;-72
2021/12/09 08:19:45;;;;;;;35.70;17.20;;;;;;;-0.80;79.48;97764.84;214624;1315;25622;-73
2021/12/09 08:24:55;;;;;;;31.20;16.80;;;;;;;-0.65;79.62;97763.73;214628;1316;23372;-71
2021/12/09 08:30:00;;;;;;;34.10;18.30;;;;;;;-0.55;79.40;97755.06;214060;1315;25346;-71
2021/12/09 08:35:19;;;;;;;34.80;17.20;;;;;;;-0.52;79.12;97764.67;214030;1318;22564;-71
2021/12/09 08:40:22;;;;;;;37.20;18.70;;;;;;;-0.56;79.02;97749.95;213996;1319;25439;-71
2021/12/09 08:45:25;;;;;;;31.80;17.30;;;;;;;-0.51;79.06;97753.33;214398;1316;23116;-71
2021/12/09 08:56:02;;;;;;;33.20;16.40;;;;;;;-0.33;79.33;97745.38;214331;1314;24262;-71
2021/12/09 09:01:05;;;;;;;30.00;15.80;;;;;;;-0.21;78.86;97735.63;212686;1315;22630;-70
2021/12/09 09:06:36;;;;;;;36.90;19.80;;;;;;;-0.10;78.61;97733.84;211696;1316;22654;-71
2021/12/09 09:12:16;;;;;;;35.50;17.70;;;;;;;0.02;78.68;97729.75;214716;1321;22616;-70
2021/12/09 09:17:22;;;;;;;;;;;;;;;0.02;78.48;97722.01;215800;1315;24545;-71
2021/12/09 09:22:24;;;;;;;;;;;;;;;0.02;78.20;97726.38;211650;1315;24307;-70
2021/12/09 09:27:35;;;;;;;;;;;;;;;0.06;77.87;97719.70;211881;1315;24331;-71
2021/12/09 09:32:54;;;;;;;;;;;;;;;0.08;78.08;97716.81;216412;1315;22828;-71
2021/12/09 09:37:57;;;;;;;;;;;;;;;0.16;77.90;97708.59;214018;1314;24453;-71
2021/12/09 09:43:03;;;;;;;;;;;;;;;0.33;78.17;97696.80;214091;1315;24343;-71
2021/12/09 09:48:12;;;;;;;;;;;;;;;0.52;77.82;97689.73;213671;1317;24326;-71
2021/12/09 09:53:19;;;;;;;;;;;;;;;0.61;77.65;97690.05;214236;1315;24405;-71
2021/12/09 09:58:31;;;;;;;;;;;;;;;0.76;77.64;97692.67;214258;1315;22674;-71
2021/12/09 10:03:51;;;;;;;;;;;;;;;0.87;77.58;97694.52;214341;1315;22983;-71
2021/12/09 10:09:16;;;;;;;;;;;;;;;1.02;77.34;97703.02;214109;1314;22617;-70
2021/12/09 10:14:35;;;;;;;;;;;;;;;1.03;77.07;97697.95;213890;1315;22621;-70
2021/12/09 10:19:57;;;;;;;;;;;;;;;1.08;76.83;97687.34;214353;1314;23215;-70
2021/12/09 10:25:18;;;;;;;;;;;;;;;1.17;76.67;97678.59;214141;1314;23740;-70
2021/12/09 10:30:39;;;;;;;;;;;;;;;1.33;76.63;97683.54;212423;1314;24235;-70
2021/12/09 10:35:48;;;;;;;;;;;;;;;1.41;76.59;97678.57;212360;1316;22688;-71
2021/12/09 10:46:04;;;;;;;;;;;;;;;1.65;76.34;97657.53;214004;1315;23027;-71
2021/12/09 10:51:23;;;;;;;;;;;;;;;1.81;76.41;97657.64;214333;1315;22568;-70
2021/12/09 10:56:33;;;;;;;;;;;;;;;1.90;76.04;97653.55;214246;1315;23181;-69
2021/12/09 11:01:41;;;;;;;;;;;;;;;1.83;75.59;97652.20;212467;1315;22683;-71
2021/12/09 11:06:53;;;;;;;;;;;;;;;;;;;;;
2021/12/09 11:11:57;;;;;;;;;;;;;;;1.52;75.25;97644.41;214213;1316;22552;-71
2021/12/09 11:17:05;;;;;;;;;;;;;;;1.40;75.31;97645.99;214111;1315;22570;-71
2021/12/09 11:22:10;;;;;;;;;;;;;;;1.28;75.19;97649.52;214013;1315;22711;-71
2021/12/09 11:27:14;;;;;;;;;;;;;;;1.21;75.47;97652.44;214061;1315;22603;-71
2021/12/09 11:32:29;;;;;;;;;;;;;;;1.16;75.53;97659.54;214400;1314;22581;-70
2021/12/09 11:42:46;;;;;;;;;;;;;;;1.21;75.70;97653.23;212298;1315;22574;-71
2021/12/09 11:47:53;;;;;;;;;;;;;;;1.32;75.67;97631.91;214364;1316;22564;-71
2021/12/09 11:53:10;;;;;;;;;;;;;;;1.41;75.90;97636.62;214585;1315;22565;-71
2021/12/09 11:58:37;;;;;;;;;;;;;;;1.40;75.45;97639.98;214415;1316;22678;-70
2021/12/09 12:15:55;;;;;;;;;;;;;;;1.12;75.58;97646.42;212132;1316;22762;-69
2021/12/09 12:32:08;;;;;;;;;;;;;;;0.96;75.68;97639.51;212496;1315;25398;-69
2021/12/09 12:43:03;;;;;;;;;;;;;;;0.93;75.96;97619.29;214604;1315;27524;-70
2021/12/09 12:53:39;;;;;;;;;;;;;;;1.03;75.96;97619.30;214342;1313;26527;-69
2021/12/09 12:59:01;;;;;;;;;;;;;;;1.00;75.90;97620.92;212320;1315;22655;-70
2021/12/09 13:10:08;;;;;;;;;;;;;;;1.08;76.12;97601.88;212499;1315;22569;-70
2021/12/09 13:15:30;;;;;;;;;;;;;;;1.08;75.76;97596.23;212187;1315;24818;-71
2021/12/09 13:24:16;;;;;;;52.00;24.80;;;;;;;1.04;75.78;97591.09;209066;1348;545545;-71
2021/12/09 13:29:37;;;;;;;46.40;23.50;;;;;;;0.98;75.91;97585.79;210684;1329;25975;-71
2021/12/09 13:35:05;;;;;;;43.90;24.20;;;;;;;0.92;75.76;97587.38;212267;1320;176494;-71
2021/12/09 13:51:54;;;;;;;56.30;29.00;;;;;;;0.79;76.26;97596.20;212221;1329;22835;-69
2021/12/09 13:57:05;;;;;;;55.90;29.40;;;;;;;0.77;76.33;97587.02;212318;1326;22665;-70
2021/12/09 14:02:34;;;;;;;54.30;29.00;;;;;;;0.77;76.56;97596.73;212275;1325;23045;-70
2021/12/09 14:07:43;;;;;;;54.20;30.30;;;;;;;0.71;76.56;97595.78;212621;1330;23469;-70
2021/12/09 14:13:15;;;;;;;56.20;29.10;;;;;;;0.66;76.49;97582.41;210724;1328;25356;-70
2021/12/09 14:18:41;;;;;;;63.00;30.50;;;;;;;0.65;76.69;97582.08;210817;1329;22663;-69
2021/12/09 14:24:12;;;;;;;55.70;28.70;;;;;;;0.63;76.85;97594.35;211064;1331;25579;-69
2021/12/09 14:29:15;;;;;;;49.10;27.50;;;;;;;0.56;76.92;97598.73;210929;1329;22717;-71
2021/12/09 14:34:19;;;;;;;54.10;28.40;;;;;;;0.50;77.01;97594.41;211006;1331;22689;-71
2021/12/09 14:39:49;;;;;;;54.30;27.90;;;;;;;0.44;76.95;97582.56;211026;1324;22748;-71
2021/12/09 14:45:16;;;;;;;54.50;27.30;;;;;;;0.44;77.15;97578.39;212052;1331;24563;-71
2021/12/09 14:50:18;;;;;;;51.50;27.40;;;;;;;0.41;77.17;97578.16;212072;1333;24379;-71
2021/12/09 14:55:29;;;;;;;51.00;26.70;;;;;;;0.40;77.37;97576.77;210777;1333;24862;-71
2021/12/09 15:00:38;;;;;;;53.30;28.80;;;;;;;0.36;77.32;97577.27;212353;1331;24330;-71
2021/12/09 15:06:28;;;;;;;43.50;23.10;;;;;;;0.31;77.38;97567.96;212094;1331;22656;-71
2021/12/09 15:12:02;;;;;;;45.30;24.70;;;;;;;0.27;77.19;97564.67;212058;1331;22919;-71
2021/12/09 15:17:20;;;;;;;50.20;26.50;;;;;;;0.25;77.53;97584.25;212656;1331;22639;-70
2021/12/09 15:22:25;;;;;;;54.20;28.70;;;;;;;0.20;77.73;97596.52;215762;1329;22601;-71
2021/12/09 15:28:00;;;;;;;49.00;27.20;;;;;;;0.17;77.47;97581.84;211966;1331;22638;-72
2021/12/09 15:33:06;;;;;;;48.50;26.40;;;;;;;0.10;77.70;97574.31;211520;1330;22599;-72
2021/12/09 15:38:23;;;;;;;53.30;26.50;;;;;;;0.09;78.20;97569.92;212323;1330;23120;-72
2021/12/09 15:43:27;;;;;;;57.10;29.30;;;;;;;0.05;78.02;97579.05;211898;1332;22664;-73
2021/12/09 15:48:55;;;;;;;46.00;24.60;;;;;;;0.05;78.06;97592.39;212206;1329;22705;-71
2021/12/09 15:54:14;;;;;;;49.50;25.90;;;;;;;0.10;78.21;97592.96;212807;1329;24295;-72
2021/12/09 15:59:33;;;;;;;51.50;28.00;;;;;;;0.13;78.54;97607.36;211525;1331;24331;-72
2021/12/09 16:04:49;;;;;;;52.20;26.90;;;;;;;0.10;78.20;97610.71;212303;1330;24342;-71
2021/12/09 16:10:00;;;;;;;58.10;30.10;;;;;;;0.09;78.62;97623.39;212502;1327;22613;-71
2021/12/09 16:15:08;;;;;;;65.20;30.80;;;;;;;0.12;78.83;97623.63;212798;1327;23117;-71
2021/12/09 16:20:18;;;;;;;64.80;33.00;;;;;;;0.17;78.91;97620.20;212335;1329;22580;-72
2021/12/09 16:25:21;;;;;;;54.30;27.30;;;;;;;0.21;78.82;97620.48;210999;1328;22624;-72
2021/12/09 16:30:27;;;;;;;58.40;30.80;;;;;;;0.18;78.66;97613.56;212253;1331;22583;-71
2021/12/09 16:35:33;;;;;;;65.90;33.80;;;;;;;0.14;78.63;97611.33;212264;1324;22709;-72
2021/12/09 16:40:39;;;;;;;66.20;32.00;;;;;;;0.14;78.59;97599.27;212304;1331;22810;-72
2021/12/09 16:45:45;;;;;;;62.00;32.70;;;;;;;0.12;78.63;97591.50;211914;1331;23097;-72
2021/12/09 16:50:52;;;;;;;59.40;30.30;;;;;;;0.13;78.84;97586.35;212199;1329;24355;-72
2021/12/09 16:56:08;;;;;;;55.90;28.40;;;;;;;0.10;79.18;97578.42;212488;1322;24412;-71
2021/12/09 17:01:21;;;;;;;62.10;31.80;;;;;;;0.02;79.09;97568.56;212463;1330;25393;-71
2021/12/09 17:06:26;;;;;;;59.50;29.30;;;;;;;0.00;79.40;97563.59;212531;1329;23237;-71
2021/12/09 17:11:35;;;;;;;53.80;29.10;;;;;;;-0.01;79.39;97560.84;212948;1329;22601;-71
2021/12/09 17:16:49;;;;;;;59.70;28.50;;;;;;;-0.04;79.60;97557.98;212169;1326;22729;-71
2021/12/09 17:22:00;;;;;;;59.30;30.50;;;;;;;-0.09;79.75;97550.13;212739;1330;22597;-71
2021/12/09 17:27:04;;;;;;;53.80;29.80;;;;;;;-0.12;79.71;97548.52;211733;1331;23055;-71
2021/12/09 17:32:08;;;;;;;51.60;27.70;;;;;;;-0.14;79.87;97547.35;212324;1330;22623;-72
2021/12/09 17:37:22;;;;;;;56.90;29.80;;;;;;;-0.17;80.02;97553.64;212857;1327;22781;-71
2021/12/09 17:42:28;;;;;;;73.40;34.50;;;;;;;-0.21;79.98;97561.27;212075;1330;22689;-71
2021/12/09 17:47:43;;;;;;;69.80;35.60;;;;;;;-0.25;80.17;97562.77;212077;1329;25389;-73
2021/12/09 17:53:09;;;;;;;58.10;30.70;;;;;;;-0.22;80.28;97558.37;211612;1332;25329;-71
2021/12/09 17:58:13;;;;;;;56.60;30.30;;;;;;;-0.20;80.50;97553.13;211647;1327;24318;-71
2021/12/09 18:03:30;;;;;;;58.80;31.30;;;;;;;-0.23;80.46;97549.15;212028;1331;26800;-72
2021/12/09 18:08:53;;;;;;;66.60;31.40;;;;;;;-0.30;80.55;97543.70;212706;1322;25412;-71
2021/12/09 18:14:18;;;;;;;63.90;31.10;;;;;;;-0.36;80.74;97545.65;212602;1329;22580;-72
2021/12/09 18:19:22;;;;;;;59.70;30.70;;;;;;;-0.38;80.64;97546.57;212350;1330;22585;-71
2021/12/09 18:24:27;;;;;;;50.70;25.60;;;;;;;-0.37;81.06;97545.64;211972;1331;22659;-72
2021/12/09 18:29:30;;;;;;;55.80;26.50;;;;;;;-0.38;81.00;97547.00;212455;1331;22582;-72
2021/12/09 18:35:06;;;;;;;58.90;29.10;;;;;;;-0.39;81.24;97551.20;212468;1330;22749;-71
2021/12/09 18:40:36;;;;;;;62.00;30.30;;;;;;;-0.40;81.41;97550.77;212391;1327;22634;-72
2021/12/09 18:46:02;;;;;;;;;;;;;;;;;;;;;
2021/12/09 18:51:13;;;;;;;59.70;31.30;;;;;;;-0.38;81.19;97557.36;212286;1330;23113;-71
2021/12/09 18:56:27;;;;;;;55.40;28.30;;;;;;;-0.37;81.34;97555.95;212006;1328;22620;-71
2021/12/09 19:01:39;;;;;;;62.10;31.70;;;;;;;-0.36;81.57;97554.91;212910;1330;22780;-68
2021/12/09 19:06:46;;;;;;;63.10;31.00;;;;;;;-0.32;81.57;97546.30;211533;1331;23076;-70
2021/12/09 19:12:01;;;;;;;60.20;28.30;;;;;;;-0.32;81.41;97544.93;212388;1330;22606;-71
2021/12/09 19:17:32;;;;;;;59.10;28.90;;;;;;;-0.31;81.42;97539.42;212561;1330;26433;-71
2021/12/09 19:22:36;;;;;;;61.00;30.20;;;;;;;-0.35;81.41;97526.91;211837;1330;26411;-71
2021/12/09 19:27:46;;;;;;;71.20;30.60;;;;;;;-0.39;81.68;97521.52;212420;1330;25279;-71
2021/12/09 19:32:49;;;;;;;59.00;31.00;;;;;;;-0.41;81.44;97512.19;212171;1331;25274;-72
2021/12/09 19:37:57;;;;;;;56.60;28.40;;;;;;;-0.46;81.17;97509.55;212237;1323;22739;-71
2021/12/09 19:43:04;;;;;;;55.50;27.30;;;;;;;-0.48;81.41;97502.38;212708;1322;22573;-71
2021/12/09 19:48:09;;;;;;;53.20;27.10;;;;;;;-0.48;81.60;97495.33;212752;1330;23346;-70
2021/12/09 19:53:11;;;;;;;47.10;24.70;;;;;;;-0.50;81.77;97497.13;212114;1325;22579;-70
2021/12/09 19:58:17;;;;;;;66.70;29.90;;;;;;;-0.55;81.66;97500.66;211556;1326;25275;-71
2021/12/09 20:03:24;;;;;;;61.80;29.90;;;;;;;-0.55;81.81;97499.29;212918;1322;26554;-71
2021/12/09 20:08:33;;;;;;;69.90;34.10;;;;;;;-0.53;81.84;97488.70;212717;1330;25348;-70
2021/12/09 20:13:38;;;;;;;66.50;31.90;;;;;;;-0.55;81.59;97499.45;212506;1327;25280;-72
2021/12/09 20:18:41;;;;;;;70.50;34.20;;;;;;;-0.58;81.83;97493.44;213992;1328;22590;-72
2021/12/09 20:23:44;;;;;;;71.00;32.80;;;;;;;-0.59;81.89;97502.72;212502;1328;23327;-70
2021/12/09 20:28:48;;;;;;;68.80;32.70;;;;;;;-0.65;81.77;97504.02;211977;1322;22582;-72
2021/12/09 20:33:52;;;;;;;66.30;31.80;;;;;;;-0.67;81.79;97499.32;212315;1330;23928;-71
2021/12/09 20:38:58;;;;;;;60.90;28.90;;;;;;;-0.71;82.16;97504.28;212260;1323;23165;-71
2021/12/09 20:44:03;;;;;;;62.60;30.50;;;;;;;-0.73;81.92;97505.30;212102;1325;22999;-70
2021/12/09 20:49:08;;;;;;;74.10;34.90;;;;;;;-0.70;82.07;97503.39;212303;1323;22646;-70
2021/12/09 20:54:14;;;;;;;69.20;32.20;;;;;;;-0.62;82.55;97495.69;212743;1327;22574;-71
2021/12/09 20:59:17;;;;;;;66.70;30.50;;;;;;;-0.59;82.35;97492.84;213071;1326;22727;-71
2021/12/09 21:04:34;;;;;;;68.00;30.50;;;;;;;-0.59;82.21;97479.64;213162;1323;22760;-71
2021/12/09 21:10:15;;;;;;;68.20;31.20;;;;;;;-0.56;82.59;97478.23;212991;1327;22723;-72
2021/12/09 21:15:22;;;;;;;73.50;30.80;;;;;;;-0.52;82.73;97481.59;212903;1327;24146;-71
2021/12/09 21:20:25;;;;;;;71.40;31.00;;;;;;;-0.49;82.60;97474.64;213330;1324;22590;-70
2021/12/09 21:25:27;;;;;;;65.10;30.90;;;;;;;-0.47;82.48;97463.96;213369;1321;25740;-71
2021/12/09 21:30:33;;;;;;;61.90;29.70;;;;;;;-0.44;82.56;97454.63;213249;1324;25412;-72
2021/12/09 21:35:36;;;;;;;59.80;30.20;;;;;;;-0.41;82.55;97459.55;209049;1322;6236541;-71
2021/12/09 21:40:41;;;;;;;64.40;27.90;;;;;;;-0.41;82.31;97464.18;213744;1317;25520;-70
2021/12/09 21:45:44;;;;;;;63.70;29.60;;;;;;;-0.45;82.21;97462.73;213755;1321;22662;-71
2021/12/09 21:50:47;;;;;;;61.30;31.00;;;;;;;-0.42;82.37;97455.39;213900;1320;24201;-71
2021/12/09 21:55:49;;;;;;;55.20;27.80;;;;;;;-0.38;82.43;97452.73;213807;1320;22597;-70
2021/12/09 22:00:58;;;;;;;56.40;28.60;;;;;;;-0.38;82.26;97453.20;212823;1322;23071;-71
2021/12/09 22:06:00;;;;;;;51.90;27.10;;;;;;;-0.47;81.95;97459.70;212989;1322;22606;-71
2021/12/09 22:11:03;;;;;;;56.00;28.40;;;;;;;-0.53;82.06;97463.55;213418;1319;22617;-71
2021/12/09 22:16:13;;;;;;;63.20;29.60;;;;;;;-0.58;82.01;97470.71;213651;1319;25431;-71
2021/12/09 22:21:26;;;;;;;66.00;32.10;;;;;;;-0.55;82.44;97466.52;213808;1322;22806;-70
2021/12/09 22:26:28;;;;;;;61.00;30.80;;;;;;;-0.52;82.42;97457.77;213489;1321;25311;-70
2021/12/09 22:31:42;;;;;;;;;;;;;;;;;;;;;
2021/12/09 22:36:45;;;;;;;71.50;34.00;;;;;;;-0.48;82.66;97444.28;213733;1316;25312;-70
2021/12/09 22:41:50;;;;;;;63.50;30.60;;;;;;;-0.50;82.40;97439.93;214163;1316;22600;-71
2021/12/09 22:47:23;;;;;;;69.20;33.20;;;;;;;-0.53;82.68;97429.50;213594;1318;23259;-71
2021/12/09 22:52:39;;;;;;;78.10;34.90;;;;;;;-0.55;82.35;97416.43;213796;1316;22656;-70
2021/12/09 22:57:42;;;;;;;65.10;31.00;;;;;;;-0.54;82.57;97418.34;213922;1323;22734;-70
2021/12/09 23:02:56;;;;;;;61.40;29.60;;;;;;;-0.51;82.59;97413.94;214139;1315;25377;-70
2021/12/09 23:08:35;;;;;;;55.20;27.90;;;;;;;-0.49;82.59;97412.74;213872;1322;22838;-71
2021/12/09 23:14:16;;;;;;;56.90;27.40;;;;;;;-0.52;82.60;97410.77;213740;1320;22831;-71
2021/12/09 23:19:37;;;;;;;60.50;30.00;;;;;;;-0.56;82.69;97406.42;213904;1320;22570;-71
2021/12/09 23:24:41;;;;;;;64.50;31.00;;;;;;;-0.54;82.76;97413.39;212800;1322;22660;-71
2021/12/09 23:29:51;;;;;;;61.20;29.40;;;;;;;-0.54;82.32;97399.56;212734;1321;25545;-71
2021/12/09 23:34:53;;;;;;;59.80;29.30;;;;;;;-0.55;82.54;97401.34;213731;1317;24279;-71
2021/12/09 23:39:56;;;;;;;64.20;33.50;;;;;;;-0.64;82.14;97407.89;213088;1321;25499;-71
2021/12/09 23:45:01;;;;;;;61.90;32.70;;;;;;;-0.77;82.03;97417.85;214148;1320;25500;-70
2021/12/09 23:50:16;;;;;;;57.00;30.80;;;;;;;-0.86;82.46;97410.19;212508;1320;22715;-70
2021/12/09 23:55:20;;;;;;;58.50;28.70;;;;;;;-0.87;82.74;97410.50;213708;1324;25280;-71
